createdAt,value
2022-10-14T00:00:14.391Z,14.43
2022-10-14T00:02:41.567Z,25.67
2022-10-14T00:05:09.965Z,27.83
2022-10-14T00:07:39.992Z,26.45
2022-10-14T00:10:07.149Z,19.98
2022-10-14T00:12:34.635Z,24.65
2022-10-14T00:15:01.723Z,15.52
2022-10-14T00:17:28.548Z,27.60
2022-10-14T00:19:55.269Z,17.15
2022-10-14T00:22:22.044Z,13.98
2022-10-14T00:24:48.782Z,21.10
2022-10-14T00:27:15.567Z,15.32
2022-10-14T00:29:42.291Z,18.52
2022-10-14T00:32:09.170Z,14.57
2022-10-14T00:34:35.955Z,11.20
2022-10-14T00:37:04.213Z,15.15
2022-10-14T00:39:32.176Z,12.52
2022-10-14T00:41:58.959Z,12.13
2022-10-14T00:44:25.641Z,12.48
2022-10-14T00:46:52.601Z,14.15
2022-10-14T00:49:27.968Z,13.57
2022-10-14T00:52:02.000Z,13.02
2022-10-14T00:54:42.311Z,15.80
2022-10-14T00:57:10.288Z,14.68
2022-10-14T00:59:38.305Z,13.73
2022-10-14T01:02:05.385Z,22.13
2022-10-14T01:04:33.240Z,13.25
2022-10-14T01:07:27.518Z,16.98
2022-10-14T01:10:09.634Z,15.55
2022-10-14T01:13:11.804Z,15.57
2022-10-14T01:15:48.823Z,13.43
2022-10-14T01:18:20.160Z,14.18
2022-10-14T01:20:57.781Z,11.90
2022-10-14T01:23:39.862Z,12.50
2022-10-14T01:26:44.775Z,19.27
2022-10-14T01:29:53.414Z,15.60
2022-10-14T01:32:26.353Z,15.63
2022-10-14T01:35:01.537Z,11.27
2022-10-14T01:37:30.577Z,13.20
2022-10-14T01:40:02.761Z,14.95
2022-10-14T01:42:34.408Z,13.35
2022-10-14T01:45:19.383Z,15.48
2022-10-14T01:47:50.363Z,17.83
2022-10-14T01:50:20.562Z,17.13
2022-10-14T01:52:53.354Z,15.18
2022-10-14T01:55:25.190Z,14.38
2022-10-14T01:57:56.160Z,16.08
2022-10-14T02:00:24.283Z,15.82
2022-10-14T02:02:51.067Z,17.45
2022-10-14T02:05:28.629Z,19.35
2022-10-14T02:08:14.445Z,15.77
2022-10-14T02:11:11.284Z,18.45
2022-10-14T02:13:47.504Z,14.45
2022-10-14T02:16:34.260Z,16.25
2022-10-14T02:19:28.486Z,17.58
2022-10-14T02:22:01.063Z,14.45
2022-10-14T02:24:39.658Z,18.02
2022-10-14T02:27:11.532Z,14.02
2022-10-14T02:29:42.529Z,10.70
2022-10-14T02:32:14.105Z,14.70
2022-10-14T02:34:42.433Z,19.60
2022-10-14T02:37:12.505Z,17.48
2022-10-14T02:39:44.254Z,16.30
2022-10-14T02:42:11.173Z,15.07
2022-10-14T02:44:37.975Z,13.77
2022-10-14T02:47:04.859Z,14.30
2022-10-14T02:49:31.757Z,21.80
2022-10-14T02:51:58.606Z,18.27
2022-10-14T02:54:25.353Z,28.50
2022-10-14T02:56:52.077Z,16.83
2022-10-14T02:59:18.842Z,16.23
2022-10-14T03:01:46.329Z,15.18
2022-10-14T03:04:13.489Z,24.17
2022-10-14T03:06:40.262Z,18.08
2022-10-14T03:09:08.171Z,13.38
2022-10-14T03:11:38.344Z,18.90
2022-10-14T03:14:08.832Z,14.20
2022-10-14T03:16:37.427Z,16.92
2022-10-14T03:19:04.315Z,15.35
2022-10-14T03:21:46.686Z,31.57
2022-10-14T03:24:18.633Z,21.83
2022-10-14T03:26:48.856Z,14.48
2022-10-14T03:29:19.437Z,12.27
2022-10-14T03:31:55.392Z,11.93
2022-10-14T03:34:42.403Z,15.40
2022-10-14T03:37:14.822Z,26.25
2022-10-14T03:39:48.257Z,27.10
2022-10-14T03:42:16.867Z,17.85
2022-10-14T03:44:47.193Z,19.65
2022-10-14T03:47:23.634Z,19.13
2022-10-14T03:49:50.967Z,15.25
2022-10-14T03:52:28.960Z,17.73
2022-10-14T03:55:02.539Z,13.70
2022-10-14T03:57:29.906Z,15.98
2022-10-14T03:59:59.136Z,15.15
2022-10-14T04:02:41.256Z,13.93
2022-10-14T04:05:20.222Z,14.25
2022-10-14T04:07:48.656Z,19.38
2022-10-14T04:10:15.774Z,27.13
2022-10-14T04:12:48.476Z,17.33
2022-10-14T04:15:23.125Z,20.15
2022-10-14T04:18:06.191Z,19.38
2022-10-14T04:20:33.533Z,19.30
2022-10-14T04:23:00.928Z,17.98
2022-10-14T04:25:28.749Z,15.05
2022-10-14T04:28:05.142Z,19.75
2022-10-14T04:30:44.119Z,19.42
2022-10-14T04:35:43.549Z,14.50
2022-10-14T04:38:19.752Z,20.60
2022-10-14T04:40:53.739Z,21.15
2022-10-14T04:43:20.962Z,18.73
2022-10-14T04:45:48.510Z,19.70
2022-10-14T04:48:22.905Z,20.00
2022-10-14T04:50:54.069Z,17.08
2022-10-14T04:53:33.505Z,17.08
2022-10-14T04:56:26.721Z,19.33
2022-10-14T04:59:00.602Z,24.75
2022-10-14T05:01:46.149Z,15.10
2022-10-14T05:04:13.621Z,22.35
2022-10-14T05:06:42.342Z,16.30
2022-10-14T05:09:12.382Z,19.45
2022-10-14T05:11:39.453Z,17.92
2022-10-14T05:14:06.514Z,14.18
2022-10-14T05:16:35.095Z,15.52
2022-10-14T05:19:03.207Z,18.60
2022-10-14T05:21:32.212Z,16.48
2022-10-14T05:24:09.060Z,20.25
2022-10-14T05:26:38.573Z,20.08
2022-10-14T05:29:10.857Z,22.90
2022-10-14T05:31:39.003Z,21.80
2022-10-14T05:34:35.855Z,20.35
2022-10-14T05:37:04.717Z,20.17
2022-10-14T05:39:38.926Z,23.15
2022-10-14T05:42:06.036Z,25.65
2022-10-14T05:44:34.776Z,24.80
2022-10-14T05:47:02.830Z,17.52
2022-10-14T05:49:29.604Z,19.90
2022-10-14T05:51:58.173Z,23.85
2022-10-14T05:54:24.962Z,26.40
2022-10-14T05:56:54.367Z,18.90
2022-10-14T05:59:22.450Z,22.95
2022-10-14T06:01:49.240Z,20.70
2022-10-14T06:04:21.243Z,23.85
2022-10-14T06:06:48.439Z,21.25
2022-10-14T06:09:16.102Z,19.55
2022-10-14T06:11:42.898Z,16.55
2022-10-14T06:14:10.040Z,16.73
2022-10-14T06:16:37.014Z,13.93
2022-10-14T06:19:06.164Z,16.08
2022-10-14T06:21:33.230Z,15.07
2022-10-14T06:24:00.133Z,16.65
2022-10-14T06:26:27.023Z,15.48
2022-10-14T06:28:53.954Z,14.95
2022-10-14T06:31:21.132Z,19.80
2022-10-14T06:33:47.886Z,16.08
2022-10-14T06:36:14.661Z,16.77
2022-10-14T06:38:41.421Z,18.58
2022-10-14T06:41:08.265Z,11.82
2022-10-14T06:43:35.493Z,13.45
2022-10-14T06:46:03.397Z,13.60
2022-10-14T06:48:30.292Z,15.73
2022-10-14T06:51:01.540Z,15.60
2022-10-14T06:53:29.475Z,12.40
2022-10-14T06:56:05.552Z,12.90
2022-10-14T06:58:33.735Z,15.00
2022-10-14T07:01:05.082Z,13.45
2022-10-14T07:03:36.448Z,10.90
2022-10-14T07:06:05.301Z,14.75
2022-10-14T07:08:32.321Z,11.98
2022-10-14T07:10:59.050Z,9.48
2022-10-14T07:13:26.245Z,9.10
2022-10-14T07:15:53.047Z,7.88
2022-10-14T07:18:20.006Z,7.35
2022-10-14T07:20:47.032Z,10.18
2022-10-14T07:23:14.042Z,9.13
2022-10-14T07:25:41.192Z,7.68
2022-10-14T07:28:08.031Z,6.88
2022-10-14T07:30:34.892Z,7.63
2022-10-14T07:33:02.066Z,8.93
2022-10-14T07:35:29.259Z,8.25
2022-10-14T07:37:57.973Z,7.63
2022-10-14T07:40:25.357Z,7.50
2022-10-14T07:42:52.204Z,6.45
2022-10-14T07:45:21.049Z,6.70
2022-10-14T07:47:50.362Z,7.50
2022-10-14T07:50:17.506Z,7.25
2022-10-14T07:52:44.442Z,7.68
2022-10-14T07:55:11.328Z,10.80
2022-10-14T07:57:38.051Z,10.10
2022-10-14T08:00:06.359Z,7.13
2022-10-14T08:02:41.775Z,6.65
2022-10-14T08:05:32.947Z,5.82
2022-10-14T08:07:55.481Z,4.93
2022-10-14T08:10:22.382Z,6.55
2022-10-14T08:12:49.269Z,6.35
2022-10-14T08:15:16.192Z,6.55
2022-10-14T08:17:43.021Z,8.02
2022-10-14T08:20:09.990Z,6.05
2022-10-14T08:22:36.835Z,5.53
2022-10-14T08:25:03.771Z,5.28
2022-10-14T08:27:30.589Z,6.85
2022-10-14T08:29:57.316Z,5.30
2022-10-14T08:32:24.660Z,5.63
2022-10-14T08:34:51.653Z,6.82
2022-10-14T08:37:18.634Z,6.55
2022-10-14T08:39:45.385Z,5.00
2022-10-14T08:42:24.874Z,9.13
2022-10-14T08:45:03.287Z,5.25
2022-10-14T08:47:40.271Z,8.48
2022-10-14T08:50:14.783Z,5.00
2022-10-14T08:52:50.067Z,8.80
2022-10-14T08:55:46.665Z,6.28
2022-10-14T08:58:16.800Z,11.00
2022-10-14T09:04:35.904Z,7.90
2022-10-14T09:07:03.334Z,7.43
2022-10-14T09:09:53.300Z,6.03
2022-10-14T09:12:29.644Z,10.52
2022-10-14T09:15:04.374Z,8.88
2022-10-14T09:17:45.111Z,6.75
2022-10-14T09:20:22.485Z,6.25
2022-10-14T09:23:04.395Z,5.43
2022-10-14T09:25:37.124Z,7.00
2022-10-14T09:28:04.181Z,6.82
2022-10-14T09:30:36.549Z,6.30
2022-10-14T09:33:05.243Z,5.07
2022-10-14T09:35:38.766Z,7.90
2022-10-14T09:38:06.055Z,5.88
2022-10-14T09:40:39.513Z,7.18
2022-10-14T09:43:09.410Z,5.70
2022-10-14T09:45:48.317Z,6.28
2022-10-14T09:48:19.024Z,5.38
2022-10-14T09:50:55.714Z,5.97
2022-10-14T09:53:27.638Z,6.55
2022-10-14T09:58:30.927Z,4.97
2022-10-14T10:01:00.060Z,4.93
2022-10-14T10:03:35.733Z,5.07
2022-10-14T10:06:07.477Z,6.15
2022-10-14T10:08:37.904Z,3.47
2022-10-14T10:11:11.351Z,6.15
2022-10-14T10:13:44.908Z,4.75
2022-10-14T10:16:20.052Z,5.32
2022-10-14T10:18:47.019Z,6.60
2022-10-14T10:21:28.023Z,6.78
2022-10-14T10:23:58.991Z,5.50
2022-10-14T10:26:33.262Z,4.57
2022-10-14T10:29:05.072Z,4.55
2022-10-14T10:31:36.495Z,4.67
2022-10-14T10:34:13.304Z,5.15
2022-10-14T10:36:48.273Z,6.57
2022-10-14T10:39:27.023Z,6.60
2022-10-14T10:42:04.181Z,6.38
2022-10-14T10:44:58.989Z,6.82
2022-10-14T10:47:50.888Z,5.15
2022-10-14T10:50:30.055Z,5.55
2022-10-14T10:53:13.856Z,7.25
2022-10-14T10:58:19.063Z,5.88
2022-10-14T11:00:54.518Z,5.45
2022-10-14T11:03:55.141Z,5.32
2022-10-14T11:06:49.975Z,4.63
2022-10-14T11:09:55.555Z,3.55
2022-10-14T11:12:36.609Z,5.85
2022-10-14T11:15:20.498Z,6.25
2022-10-14T11:18:01.273Z,5.55
2022-10-14T11:20:44.084Z,4.72
2022-10-14T11:23:42.692Z,4.95
2022-10-14T11:26:52.360Z,5.05
2022-10-14T11:29:47.570Z,4.15
2022-10-14T11:32:14.396Z,4.82
2022-10-14T11:35:09.513Z,5.43
2022-10-14T11:37:54.707Z,5.55
2022-10-14T11:40:50.777Z,4.68
2022-10-14T11:43:36.634Z,5.88
2022-10-14T11:46:12.594Z,4.07
2022-10-14T11:48:47.528Z,4.53
2022-10-14T11:51:35.900Z,5.07
2022-10-14T11:54:09.162Z,4.75
2022-10-14T11:56:41.794Z,5.00
2022-10-14T12:01:50.172Z,3.20
2022-10-14T12:04:27.907Z,5.05
2022-10-14T12:07:13.460Z,12.18
2022-10-14T12:09:59.889Z,5.88
2022-10-14T12:12:29.440Z,6.50
2022-10-14T12:15:00.488Z,8.85
2022-10-14T12:17:51.644Z,6.22
2022-10-14T12:20:34.408Z,10.38
2022-10-14T12:23:04.662Z,5.97
2022-10-14T12:25:41.534Z,5.40
2022-10-14T12:28:12.392Z,5.80
2022-10-14T12:30:41.608Z,8.85
2022-10-14T12:33:13.384Z,6.07
2022-10-14T12:36:02.120Z,5.13
2022-10-14T12:38:30.597Z,7.80
2022-10-14T12:41:40.409Z,8.88
2022-10-14T12:44:14.881Z,5.55
2022-10-14T12:46:45.405Z,6.22
2022-10-14T12:49:46.759Z,5.90
2022-10-14T12:52:21.400Z,7.00
2022-10-14T12:54:50.127Z,6.13
2022-10-14T12:57:31.099Z,10.63
2022-10-14T13:00:01.461Z,10.60
2022-10-14T13:02:37.525Z,14.32
2022-10-14T13:05:10.451Z,6.75
2022-10-14T13:07:46.600Z,3.70
2022-10-14T13:10:46.841Z,6.00
2022-10-14T13:13:42.538Z,4.63
2022-10-14T13:16:16.068Z,6.93
2022-10-14T13:18:42.811Z,4.35
2022-10-14T13:21:21.115Z,9.65
2022-10-14T13:23:51.461Z,6.18
2022-10-14T13:26:31.817Z,3.47
2022-10-14T13:29:13.748Z,4.20
2022-10-14T13:31:49.683Z,2.45
2022-10-14T13:34:27.754Z,2.97
2022-10-14T13:37:03.437Z,3.53
2022-10-14T13:39:33.669Z,3.40
2022-10-14T13:42:01.795Z,6.43
2022-10-14T13:44:28.934Z,4.78
2022-10-14T13:46:56.457Z,2.63
2022-10-14T13:49:38.125Z,2.67
2022-10-14T13:52:18.335Z,4.28
2022-10-14T13:54:45.926Z,2.97
2022-10-14T14:02:55.171Z,6.63
2022-10-14T14:05:26.283Z,5.03
2022-10-14T14:10:57.511Z,6.60
2022-10-14T14:13:32.368Z,5.15
2022-10-14T14:15:59.217Z,6.25
2022-10-14T14:18:33.944Z,5.90
2022-10-14T14:21:13.384Z,4.80
2022-10-14T14:24:16.782Z,3.45
2022-10-14T14:26:53.713Z,5.25
2022-10-14T14:29:27.859Z,4.35
2022-10-14T14:32:12.322Z,4.15
2022-10-14T14:34:42.902Z,4.75
2022-10-14T14:40:15.017Z,4.60
2022-10-14T14:42:43.805Z,4.50
2022-10-14T14:45:17.975Z,8.15
2022-10-14T14:47:53.343Z,5.65
2022-10-14T14:50:30.414Z,5.82
2022-10-14T14:53:03.355Z,4.90
2022-10-14T14:55:43.493Z,5.20
2022-10-14T14:58:28.593Z,3.85
2022-10-14T15:00:56.036Z,4.07
2022-10-14T15:03:30.773Z,7.03
2022-10-14T15:06:00.908Z,5.03
2022-10-14T15:08:32.171Z,6.15
2022-10-14T15:11:00.368Z,5.68
2022-10-14T15:13:39.637Z,4.50
2022-10-14T15:16:07.700Z,5.45
2022-10-14T15:18:37.593Z,4.85
2022-10-14T15:21:21.558Z,7.38
2022-10-14T15:23:52.895Z,4.72
2022-10-14T15:26:21.614Z,4.40
2022-10-14T15:29:22.711Z,6.15
2022-10-14T15:32:05.180Z,6.13
2022-10-14T15:36:59.477Z,6.72
2022-10-14T15:39:26.337Z,9.73
2022-10-14T15:41:53.116Z,9.27
2022-10-14T15:44:19.881Z,9.43
2022-10-14T15:47:05.693Z,10.52
2022-10-14T15:49:42.563Z,18.48
2022-10-14T15:52:15.541Z,17.30
2022-10-14T15:54:43.235Z,14.07
2022-10-14T15:57:14.024Z,9.98
2022-10-14T15:59:45.629Z,13.18
2022-10-14T16:02:33.475Z,14.88
2022-10-14T16:05:19.442Z,14.90
2022-10-14T16:07:48.419Z,11.57
2022-10-14T16:10:18.385Z,11.35
2022-10-14T16:12:45.854Z,10.70
2022-10-14T16:15:30.455Z,9.70
2022-10-14T16:17:57.430Z,9.60
2022-10-14T16:20:24.534Z,7.68
2022-10-14T16:22:51.318Z,9.40
2022-10-14T16:25:32.914Z,9.30
2022-10-14T16:28:00.598Z,10.23
2022-10-14T16:30:28.157Z,9.40
2022-10-14T16:32:55.519Z,8.75
2022-10-14T16:35:22.435Z,9.82
2022-10-14T16:37:49.183Z,8.50
2022-10-14T16:40:16.216Z,8.10
2022-10-14T16:42:42.936Z,10.15
2022-10-14T16:45:10.307Z,7.38
2022-10-14T16:47:38.144Z,10.23
2022-10-14T16:50:06.715Z,13.43
2022-10-14T16:52:54.657Z,15.00
2022-10-14T16:55:22.639Z,19.63
2022-10-14T16:57:49.685Z,19.05
2022-10-14T17:02:45.488Z,20.27
2022-10-14T17:05:13.153Z,16.98
2022-10-14T17:07:39.941Z,10.70
2022-10-14T17:10:07.141Z,8.82
2022-10-14T17:12:33.971Z,9.32
2022-10-14T17:15:00.722Z,12.13
2022-10-14T17:17:27.476Z,9.43
2022-10-14T17:19:54.412Z,11.65
2022-10-14T17:22:21.591Z,8.82
2022-10-14T17:24:49.837Z,10.13
2022-10-14T17:27:19.499Z,9.32
2022-10-14T17:29:46.885Z,12.45
2022-10-14T17:32:13.645Z,12.18
2022-10-14T17:34:40.403Z,11.65
2022-10-14T17:39:35.029Z,9.10
2022-10-14T17:42:01.897Z,12.25
2022-10-14T17:44:28.964Z,12.32
2022-10-14T17:46:56.930Z,10.30
2022-10-14T17:49:23.747Z,13.30
2022-10-14T17:51:50.453Z,8.60
2022-10-14T17:54:17.241Z,7.68
2022-10-14T17:56:44.034Z,10.25
2022-10-14T17:59:12.183Z,10.02
2022-10-14T18:04:25.644Z,9.68
2022-10-14T18:06:54.158Z,7.78
2022-10-14T18:09:21.319Z,10.52
2022-10-14T18:14:38.682Z,15.65
2022-10-14T18:17:06.090Z,11.98
2022-10-14T18:19:33.526Z,8.23
2022-10-14T18:22:00.682Z,10.00
2022-10-14T18:24:27.601Z,11.93
2022-10-14T18:26:54.419Z,9.65
2022-10-14T18:29:21.584Z,9.25
2022-10-14T18:31:49.881Z,10.23
2022-10-14T18:34:17.101Z,11.35
2022-10-14T18:36:43.812Z,9.07
2022-10-14T18:39:12.249Z,11.48
2022-10-14T18:41:39.374Z,9.70
2022-10-14T18:44:07.136Z,8.68
2022-10-14T18:46:36.586Z,8.73
2022-10-14T18:49:05.862Z,9.20
2022-10-14T18:51:35.798Z,9.18
2022-10-14T18:54:05.394Z,12.30
2022-10-14T18:56:38.755Z,9.02
2022-10-14T18:59:18.341Z,11.52
2022-10-14T19:01:46.212Z,7.90
2022-10-14T19:04:14.954Z,9.68
2022-10-14T19:06:44.980Z,9.77
2022-10-14T19:09:12.746Z,9.07
2022-10-14T19:11:39.583Z,6.50
2022-10-14T19:14:06.479Z,7.50
2022-10-14T19:16:39.032Z,8.23
2022-10-14T19:19:16.661Z,11.30
2022-10-14T19:21:45.618Z,11.52
2022-10-14T19:24:13.992Z,6.50
2022-10-14T19:26:43.164Z,10.65
2022-10-14T19:29:12.620Z,6.78
2022-10-14T19:31:39.997Z,10.07
2022-10-14T19:34:08.499Z,10.13
2022-10-14T19:36:37.720Z,8.77
2022-10-14T19:39:06.730Z,5.72
2022-10-14T19:41:38.413Z,7.47
2022-10-14T19:44:05.400Z,8.45
2022-10-14T19:46:32.178Z,8.57
2022-10-14T19:49:02.387Z,10.85
2022-10-14T19:51:29.719Z,8.48
2022-10-14T19:53:57.337Z,8.88
2022-10-14T19:56:25.504Z,11.98
2022-10-14T19:58:54.741Z,6.57
2022-10-14T20:01:24.010Z,10.45
2022-10-14T20:03:51.766Z,6.43
2022-10-14T20:06:19.250Z,6.68
2022-10-14T20:08:46.195Z,8.52
2022-10-14T20:11:16.471Z,8.30
2022-10-14T20:13:46.252Z,8.80
2022-10-14T20:16:13.703Z,8.73
2022-10-14T20:18:41.119Z,8.07
2022-10-14T20:21:10.253Z,6.82
2022-10-14T20:23:40.973Z,7.45
2022-10-14T20:26:11.530Z,9.18
2022-10-14T20:28:39.408Z,6.18
2022-10-14T20:31:08.378Z,6.18
2022-10-14T20:33:35.500Z,7.85
2022-10-14T20:36:14.084Z,8.70
2022-10-14T20:38:41.596Z,7.13
2022-10-14T20:41:13.627Z,8.10
2022-10-14T20:43:41.664Z,7.00
2022-10-14T20:46:08.530Z,9.93
2022-10-14T20:48:37.396Z,7.53
2022-10-14T20:51:08.995Z,6.40
2022-10-14T20:53:35.864Z,8.20
2022-10-14T20:56:05.469Z,7.07
2022-10-14T20:58:33.924Z,7.20
2022-10-14T21:01:09.108Z,5.90
2022-10-14T21:03:36.275Z,6.22
2022-10-14T21:06:08.381Z,6.63
2022-10-14T21:08:36.272Z,6.80
2022-10-14T21:11:11.939Z,8.50
2022-10-14T21:13:44.714Z,5.15
2022-10-14T21:16:32.580Z,6.13
2022-10-14T21:19:05.671Z,8.07
2022-10-14T21:21:38.637Z,5.35
2022-10-14T21:24:06.216Z,5.57
2022-10-14T21:26:33.075Z,5.65
2022-10-14T21:29:02.425Z,6.90
2022-10-14T21:31:30.195Z,7.82
2022-10-14T21:34:02.744Z,6.93
2022-10-14T21:36:33.259Z,7.47
2022-10-14T21:39:03.991Z,7.80
2022-10-14T21:41:31.304Z,8.20
2022-10-14T21:43:59.327Z,6.43
2022-10-14T21:46:26.972Z,6.97
2022-10-14T21:48:57.150Z,6.43
2022-10-14T21:51:26.760Z,12.13
2022-10-14T21:53:53.643Z,9.90
2022-10-14T21:56:21.793Z,7.88
2022-10-14T21:58:48.754Z,6.60
2022-10-14T22:01:24.343Z,10.40
2022-10-14T22:04:05.408Z,7.78
2022-10-14T22:06:35.368Z,6.90
2022-10-14T22:09:05.449Z,6.97
2022-10-14T22:11:35.648Z,6.43
2022-10-14T22:14:04.653Z,8.85
2022-10-14T22:16:31.858Z,9.80
2022-10-14T22:19:01.040Z,7.53
2022-10-14T22:21:30.078Z,8.32
2022-10-14T22:23:58.406Z,7.95
2022-10-14T22:26:26.950Z,7.78
2022-10-14T22:29:01.093Z,8.45
2022-10-14T22:31:29.408Z,5.32
2022-10-14T22:33:56.181Z,5.63
2022-10-14T22:36:25.465Z,5.40
2022-10-14T22:38:53.547Z,5.75
2022-10-14T22:41:21.953Z,6.05
2022-10-14T22:43:51.170Z,7.63
2022-10-14T22:46:20.787Z,10.57
2022-10-14T22:48:49.181Z,4.75
2022-10-14T22:51:19.000Z,5.65
2022-10-14T22:53:46.723Z,6.63
2022-10-14T22:56:17.096Z,7.07
2022-10-14T22:58:43.921Z,4.85
2022-10-14T23:01:13.819Z,6.95
2022-10-14T23:03:41.194Z,6.65
2022-10-14T23:06:10.276Z,3.88
2022-10-14T23:08:38.091Z,6.28
2022-10-14T23:11:05.358Z,6.05
2022-10-14T23:13:33.023Z,4.32
2022-10-14T23:16:02.113Z,6.15
2022-10-14T23:18:31.522Z,5.35
2022-10-14T23:20:58.412Z,7.80
2022-10-14T23:23:25.269Z,4.53
2022-10-14T23:25:52.179Z,7.53
2022-10-14T23:28:18.983Z,3.88
2022-10-14T23:30:45.863Z,5.03
2022-10-14T23:33:12.703Z,5.60
2022-10-14T23:35:39.518Z,4.97
2022-10-14T23:38:06.330Z,5.10
2022-10-14T23:40:33.536Z,4.88
2022-10-14T23:43:00.233Z,5.28
2022-10-14T23:45:27.007Z,6.97
2022-10-14T23:47:53.676Z,7.40
2022-10-14T23:50:22.566Z,7.60
2022-10-14T23:52:49.637Z,6.53
2022-10-14T23:55:16.480Z,6.65
2022-10-14T23:57:43.303Z,7.70
